Gurli — SLEG — position and weather

sailwx.info

Track history (hours):
 
Tides and Currents Weather Stations Pressure Air Temp Water Temp Dewpoint Dewpoint Depression Visibility Wind Speed Wind Dir Waves Ship Positions

Gurli

Last reported at 2014-Dec-20 18:32 UTC. Time now 2014-Dec-20 18:41 UTC.
Position N 59°20' E 018°05'.

Length 21 m.

Type: Passenger vessel. MMSI: 265687640.

Date/timePositionNaut miles runAvg speedWind from/ knotsBaromVisibWave heightAir tempDewpointWater temp
2014-Dec-20 18:32N 59°20' E 018°05'2 2.4
2014-Dec-20 17:32N 59°20' E 018°09'2 2.0
2014-Dec-20 16:32N 59°19' E 018°06'2 1.9
2014-Dec-20 15:29N 59°20' E 018°10'3 2.8
2014-Dec-20 14:33N 59°20' E 018°05'2 2.4
2014-Dec-20 13:33N 59°20' E 018°09'2 2.2
2014-Dec-20 12:26N 59°20' E 018°05'2 1.9
2014-Dec-20 11:33N 59°19' E 018°07'0 0.4
2014-Dec-20 10:30N 59°19' E 018°08'0 0.4
2014-Dec-20 09:33N 59°19' E 018°07'1 0.9
2014-Dec-20 08:33N 59°19' E 018°09'2 2.2
2014-Dec-20 07:32N 59°20' E 018°05'0 0.0
2014-Dec-20 06:32N 59°20' E 018°05'0 0.0
2014-Dec-20 05:26N 59°20' E 018°05'0 0.0
2014-Dec-20 04:14N 59°20' E 018°05'0 0.0
2014-Dec-20 03:26N 59°20' E 018°05'0 0.0
2014-Dec-20 02:23N 59°20' E 018°05'0 0.0
2014-Dec-20 00:26N 59°20' E 018°05'0 0.0
2014-Dec-19 23:26N 59°20' E 018°05'0 0.0
2014-Dec-19 22:14N 59°20' E 018°05'0 0.0
2014-Dec-19 21:23N 59°20' E 018°05'0 0.0
2014-Dec-19 20:32N 59°20' E 018°05'0 0.0
2014-Dec-19 19:20N 59°20' E 018°05'3 3.0
2014-Dec-19 18:29N 59°19' E 018°10'1 0.8
2014-Dec-19 17:32N 59°19' E 018°08'0 0.3
2014-Dec-19 16:32N 59°19' E 018°09'1 0.5
2014-Dec-19 15:24N 59°19' E 018°08'0 0.1
2014-Dec-19 14:29N 59°19' E 018°08'1 0.9
2014-Dec-19 13:33N 59°19' E 018°10'1 1.1
2014-Dec-19 12:33N 59°19' E 018°07'1 0.6
2014-Dec-19 11:27N 59°19' E 018°09'1 0.8
2014-Dec-19 10:32N 59°19' E 018°07'1 0.6
2014-Dec-19 09:27N 59°19' E 018°09'1 0.6
2014-Dec-19 08:33N 59°19' E 018°08'0 0.2
2014-Dec-19 07:23N 59°19' E 018°08'0 0.1
2014-Dec-19 06:30N 59°19' E 018°08'1 0.8
2014-Dec-19 05:27N 59°19' E 018°10'3 2.7
2014-Dec-19 04:27N 59°20' E 018°05'0 0.0
2014-Dec-19 03:27N 59°20' E 018°05'0 0.0
2014-Dec-19 02:21N 59°20' E 018°05'0 0.0
2014-Dec-19 01:33N 59°20' E 018°05'0 0.0
2014-Dec-19 00:24N 59°20' E 018°05'0 0.0
2014-Dec-18 23:24N 59°20' E 018°05'0 0.0
2014-Dec-18 22:33N 59°20' E 018°05'0 0.0
2014-Dec-18 21:33N 59°20' E 018°05'0 0.0
2014-Dec-18 20:33N 59°20' E 018°05'1 1.2
2014-Dec-18 19:33N 59°19' E 018°06'2 1.7
2014-Dec-18 18:18N 59°21' E 018°09'2 2.3
2014-Dec-18 17:30N 59°19' E 018°07'6 4.8
2014-Dec-18 16:13N 59°25' E 018°09'6 8.3
2014-Dec-18 15:30N 59°19' E 018°08'0 0.2
2014-Dec-18 14:32N 59°19' E 018°08'1 0.5
2014-Dec-18 13:27N 59°19' E 018°09'1 0.8
2014-Dec-18 12:33N 59°19' E 018°08'0 0.3
2014-Dec-18 11:28N 59°19' E 018°08'0 0.4
2014-Dec-18 10:33N 59°19' E 018°07'1 0.7
2014-Dec-18 09:27N 59°19' E 018°09'0 0.4
2014-Dec-18 08:32N 59°19' E 018°08'0 0.0
2014-Dec-18 07:25N 59°19' E 018°08'0 0.4
2014-Dec-18 06:31N 59°19' E 018°08'0 0.3
2014-Dec-18 05:19N 59°19' E 018°08'2 2.4
2014-Dec-18 04:29N 59°20' E 018°05'0 0.0
2014-Dec-18 03:23N 59°20' E 018°05'0 0.0
2014-Dec-18 02:30N 59°20' E 018°05'0 0.0
2014-Dec-18 01:27N 59°20' E 018°05'0 0.0
2014-Dec-18 00:27N 59°20' E 018°05'0 0.0
2014-Dec-17 23:33N 59°20' E 018°05'0 0.0
2014-Dec-17 22:27N 59°20' E 018°05'0 0.0
2014-Dec-17 21:24N 59°20' E 018°05'0 0.0
2014-Dec-17 20:24N 59°20' E 018°05'0 0.0
2014-Dec-17 19:24N 59°20' E 018°05'2 2.1
2014-Dec-17 18:17N 59°21' E 018°09'2 2.1
2014-Dec-17 17:30N 59°19' E 018°08'1 0.8
2014-Dec-17 16:25N 59°19' E 018°10'1 0.6
2014-Dec-17 15:32N 59°19' E 018°09'0 0.2
2014-Dec-17 14:32N 59°19' E 018°08'0 0.2
2014-Dec-17 13:27N 59°19' E 018°09'1 0.6
2014-Dec-17 12:32N 59°19' E 018°08'0 0.3
2014-Dec-17 11:24N 59°19' E 018°08'0 0.1
2014-Dec-17 10:31N 59°19' E 018°08'1 0.6
2014-Dec-17 09:28N 59°19' E 018°09'1 0.6
2014-Dec-17 08:33N 59°19' E 018°08'1 0.5
2014-Dec-17 07:28N 59°19' E 018°09'0 0.2
2014-Dec-17 06:17N 59°19' E 018°10'0 0.1
2014-Dec-17 05:33N 59°19' E 018°10'3 2.3
2014-Dec-17 04:26N 59°20' E 018°05'0 0.0
2014-Dec-17 03:23N 59°20' E 018°05'0 0.0
2014-Dec-17 02:20N 59°20' E 018°05'0 0.0
2014-Dec-17 01:32N 59°20' E 018°05'0 0.0
2014-Dec-17 00:32N 59°20' E 018°05'0 0.0
2014-Dec-16 23:29N 59°20' E 018°05'0 0.0
2014-Dec-16 22:26N 59°20' E 018°05'0 0.0
2014-Dec-16 21:23N 59°20' E 018°05'0 0.0
2014-Dec-16 20:23N 59°20' E 018°05'0 0.0
2014-Dec-16 19:23N 59°20' E 018°05'3 3.0
2014-Dec-16 18:30N 59°19' E 018°10'1 0.7
2014-Dec-16 17:32N 59°19' E 018°08'0 0.3
2014-Dec-16 16:32N 59°19' E 018°09'0 0.3
2014-Dec-16 15:28N 59°19' E 018°08'0 0.2
2014-Dec-16 14:33N 59°19' E 018°08'0 0.4
2014-Dec-16 13:27N 59°19' E 018°09'0 0.3
2014-Dec-16 12:31N 59°19' E 018°08'0 0.1
2014-Dec-16 11:25N 59°19' E 018°08'0 0.1
2014-Dec-16 10:29N 59°19' E 018°08'0 0.0
2014-Dec-16 09:30N 59°19' E 018°08'0 0.0
2014-Dec-16 08:32N 59°19' E 018°08'0 0.0
2014-Dec-16 07:29N 59°19' E 018°08'0 0.0
2014-Dec-16 06:30N 59°19' E 018°08'2 1.0
2014-Dec-16 04:33N 59°20' E 018°05'0 0.0
2014-Dec-15 23:27N 59°20' E 018°05'0 0.0
2014-Dec-15 22:33N 59°20' E 018°05'0 0.0
2014-Dec-15 21:33N 59°20' E 018°05'0 0.0
2014-Dec-15 20:33N 59°20' E 018°05'0 0.0
2014-Dec-15 19:30N 59°20' E 018°05'2 1.3
2014-Dec-15 18:06N 59°21' E 018°08'2 3.0
2014-Dec-15 17:32N 59°19' E 018°08'0 0.1
2014-Dec-15 16:32N 59°19' E 018°09'0 0.3
2014-Dec-15 15:31N 59°19' E 018°09'1 0.9
2014-Dec-15 14:33N 59°19' E 018°07'0 0.1
2014-Dec-15 13:21N 59°19' E 018°08'2 2.2
2014-Dec-15 12:30N 59°20' E 018°05'0 0.0
2014-Dec-15 11:33N 59°20' E 018°05'2 2.0
2014-Dec-15 10:32N 59°19' E 018°08'0 0.3
2014-Dec-15 09:25N 59°19' E 018°09'0 0.3
2014-Dec-15 08:33N 59°19' E 018°08'1 0.7
2014-Dec-15 07:32N 59°19' E 018°10'1 1.0
2014-Dec-15 06:32N 59°19' E 018°08'1 1.0
2014-Dec-15 05:32N 59°19' E 018°10'3 2.5
2014-Dec-15 04:31N 59°20' E 018°05'0 0.0
2014-Dec-15 03:19N 59°20' E 018°05'0 0.0
2014-Dec-15 02:31N 59°20' E 018°05'0 0.0
2014-Dec-15 01:31N 59°20' E 018°05'0 0.0
2014-Dec-15 00:22N 59°20' E 018°05'0 0.0
2014-Dec-14 23:22N 59°20' E 018°05'0 0.0
2014-Dec-14 21:10N 59°20' E 018°05'0 0.0
2014-Dec-14 20:22N 59°20' E 018°05'0 0.0
2014-Dec-14 19:22N 59°20' E 018°05'0 0.0
2014-Dec-14 18:31N 59°20' E 018°05'0 0.0
2014-Dec-14 17:28N 59°20' E 018°05'0 0.0
2014-Dec-14 16:04N 59°20' E 018°05'0 0.0
2014-Dec-14 15:22N 59°20' E 018°05'0 0.0
2014-Dec-14 14:22N 59°20' E 018°05'0 0.0
2014-Dec-14 13:31N 59°20' E 018°05'0 0.0
2014-Dec-14 12:28N 59°20' E 018°05'0 0.0
2014-Dec-14 11:22N 59°20' E 018°05'0 0.0
2014-Dec-14 09:31N 59°20' E 018°05'0 0.0
2014-Dec-14 08:31N 59°20' E 018°05'0 0.0
2014-Dec-14 07:31N 59°20' E 018°05'0 0.0
2014-Dec-14 06:04N 59°20' E 018°05'0 0.0
2014-Dec-14 05:25N 59°20' E 018°05'0 0.0
2014-Dec-14 04:19N 59°20' E 018°05'0 0.0
2014-Dec-14 03:28N 59°20' E 018°05'0 0.0
2014-Dec-14 02:16N 59°20' E 018°05'0 0.0
2014-Dec-14 01:28N 59°20' E 018°05'0 0.0
2014-Dec-14 00:28N 59°20' E 018°05'0 0.0
2014-Dec-13 23:28N 59°20' E 018°05'0 0.0
2014-Dec-13 22:13N 59°20' E 018°05'0 0.0
2014-Dec-13 21:22N 59°20' E 018°05'0 0.0
2014-Dec-13 20:22N 59°20' E 018°05'0 0.0
2014-Dec-13 19:31N 59°20' E 018°05'0 0.0
2014-Dec-13 18:19N 59°20' E 018°05'0 0.0
2014-Dec-13 17:28N 59°20' E 018°05'0 0.0
2014-Dec-13 15:13N 59°20' E 018°05'0 0.0
2014-Dec-13 14:13N 59°20' E 018°05'0 0.0
2014-Dec-13 13:22N 59°20' E 018°05'0 0.0
2014-Dec-13 12:22N 59°20' E 018°05'0 0.0
2014-Dec-13 11:22N 59°20' E 018°05'0 0.0
2014-Dec-13 10:28N 59°20' E 018°05'0 0.0
2014-Dec-13 09:25N 59°20' E 018°05'0 0.0
2014-Dec-13 08:25N 59°20' E 018°05'0 0.0
2014-Dec-13 05:22N 59°20' E 018°05'0 0.0
2014-Dec-13 04:19N 59°20' E 018°05'0 0.0
2014-Dec-13 03:19N 59°20' E 018°05'0 0.0
2014-Dec-13 01:25N 59°20' E 018°05'0 0.0
2014-Dec-13 00:25N 59°20' E 018°05'0 0.0
2014-Dec-12 23:25N 59°20' E 018°05'0 0.0
2014-Dec-12 22:31N 59°20' E 018°05'0 0.0
2014-Dec-12 21:31N 59°20' E 018°05'0 0.0
2014-Dec-12 20:27N 59°20' E 018°05'2 1.9
2014-Dec-12 19:26N 59°21' E 018°08'2 2.0
2014-Dec-12 18:31N 59°20' E 018°05'2 2.2
2014-Dec-12 17:33N 59°21' E 018°08'2 1.9
2014-Dec-12 16:30N 59°20' E 018°05'2 2.0
2014-Dec-12 15:33N 59°21' E 018°08'2 1.7
2014-Dec-12 14:26N 59°20' E 018°05'2 1.9
2014-Dec-12 13:30N 59°19' E 018°08'0 0.1
2014-Dec-12 12:32N 59°19' E 018°08'2 1.4
2014-Dec-12 11:24N 59°21' E 018°09'2 2.5
2014-Dec-12 10:31N 59°20' E 018°05'2 1.7
2014-Dec-12 09:31N 59°21' E 018°08'2 1.6
2014-Dec-12 08:23N 59°20' E 018°05'2 2.2
2014-Dec-12 07:18N 59°21' E 018°09'2 2.8
2014-Dec-12 06:32N 59°19' E 018°07'2 1.7
2014-Dec-12 05:22N 59°21' E 018°08'2 2.2
2014-Dec-12 04:31N 59°20' E 018°05'0 0.1
2014-Dec-12 03:27N 59°20' E 018°05'0 0.0
2014-Dec-12 02:27N 59°20' E 018°05'0 0.0
2014-Dec-12 00:21N 59°20' E 018°05'0 0.0
2014-Dec-11 23:33N 59°20' E 018°05'0 0.0
2014-Dec-11 22:24N 59°20' E 018°05'0 0.0
2014-Dec-11 21:33N 59°20' E 018°05'0 0.0
2014-Dec-11 20:33N 59°20' E 018°05'2 1.7
2014-Dec-11 19:22N 59°21' E 018°08'2 2.4
2014-Dec-11 18:31N 59°20' E 018°05'2 2.3
2014-Dec-11 17:29N 59°21' E 018°09'2 2.5
2014-Dec-11 16:31N 59°20' E 018°05'2 2.0
2014-Dec-11 15:33N 59°21' E 018°08'2 2.0
2014-Dec-11 14:33N 59°20' E 018°05'2 1.7
2014-Dec-11 13:33N 59°19' E 018°07'0 0.4
2014-Dec-11 12:32N 59°19' E 018°08'2 1.4
2014-Dec-11 11:23N 59°21' E 018°09'2 2.7
2014-Dec-11 10:34N 59°19' E 018°06'2 1.7
2014-Dec-11 09:29N 59°21' E 018°08'2 1.7
2014-Dec-11 08:23N 59°20' E 018°05'3 3.2
2014-Dec-11 07:33N 59°19' E 018°10'2 1.6
2014-Dec-11 06:30N 59°19' E 018°06'2 2.1
2014-Dec-11 05:30N 59°21' E 018°09'2 2.5
2014-Dec-11 04:32N 59°20' E 018°05'0 0.2
2014-Dec-11 03:06N 59°20' E 018°05'0 0.0
2014-Dec-11 02:30N 59°20' E 018°05'0 0.0
2014-Dec-11 01:33N 59°20' E 018°05'0 0.0
2014-Dec-11 00:27N 59°20' E 018°05'0 0.0
2014-Dec-10 23:33N 59°20' E 018°05'0 0.0
2014-Dec-10 22:15N 59°20' E 018°05'0 0.0
2014-Dec-10 21:27N 59°20' E 018°05'0 0.0
2014-Dec-10 20:26N 59°20' E 018°05'2 2.0
2014-Dec-10 19:28N 59°21' E 018°08'2 2.1
2014-Dec-10 18:33N 59°20' E 018°05'  
Track history (hours):
 
Tides and Currents Weather Stations Pressure Air Temp Water Temp Dewpoint Dewpoint Depression Visibility Wind Speed Wind Dir Waves Ship Positions

Gurli

Last reported at 2014-Dec-20 18:32 UTC. Time now 2014-Dec-20 18:41 UTC.
Position N 59°20' E 018°05'.

Length 21 m.

Type: Passenger vessel. MMSI: 265687640.

Date/timePositionNaut miles runAvg speedWind from/ knotsBaromVisibWave heightAir tempDewpointWater temp
2014-Dec-20 18:32N 59°20' E 018°05'2 2.4
2014-Dec-20 17:32N 59°20' E 018°09'2 2.0
2014-Dec-20 16:32N 59°19' E 018°06'2 1.9
2014-Dec-20 15:29N 59°20' E 018°10'3 2.8
2014-Dec-20 14:33N 59°20' E 018°05'2 2.4
2014-Dec-20 13:33N 59°20' E 018°09'2 2.2
2014-Dec-20 12:26N 59°20' E 018°05'2 1.9
2014-Dec-20 11:33N 59°19' E 018°07'0 0.4
2014-Dec-20 10:30N 59°19' E 018°08'0 0.4
2014-Dec-20 09:33N 59°19' E 018°07'1 0.9
2014-Dec-20 08:33N 59°19' E 018°09'2 2.2
2014-Dec-20 07:32N 59°20' E 018°05'0 0.0
2014-Dec-20 06:32N 59°20' E 018°05'0 0.0
2014-Dec-20 05:26N 59°20' E 018°05'0 0.0
2014-Dec-20 04:14N 59°20' E 018°05'0 0.0
2014-Dec-20 03:26N 59°20' E 018°05'0 0.0
2014-Dec-20 02:23N 59°20' E 018°05'0 0.0
2014-Dec-20 00:26N 59°20' E 018°05'0 0.0
2014-Dec-19 23:26N 59°20' E 018°05'0 0.0
2014-Dec-19 22:14N 59°20' E 018°05'0 0.0
2014-Dec-19 21:23N 59°20' E 018°05'0 0.0
2014-Dec-19 20:32N 59°20' E 018°05'0 0.0
2014-Dec-19 19:20N 59°20' E 018°05'3 3.0
2014-Dec-19 18:29N 59°19' E 018°10'1 0.8
2014-Dec-19 17:32N 59°19' E 018°08'0 0.3
2014-Dec-19 16:32N 59°19' E 018°09'1 0.5
2014-Dec-19 15:24N 59°19' E 018°08'0 0.1
2014-Dec-19 14:29N 59°19' E 018°08'1 0.9
2014-Dec-19 13:33N 59°19' E 018°10'1 1.1
2014-Dec-19 12:33N 59°19' E 018°07'1 0.6
2014-Dec-19 11:27N 59°19' E 018°09'1 0.8
2014-Dec-19 10:32N 59°19' E 018°07'1 0.6
2014-Dec-19 09:27N 59°19' E 018°09'1 0.6
2014-Dec-19 08:33N 59°19' E 018°08'0 0.2
2014-Dec-19 07:23N 59°19' E 018°08'0 0.1
2014-Dec-19 06:30N 59°19' E 018°08'1 0.8
2014-Dec-19 05:27N 59°19' E 018°10'3 2.7
2014-Dec-19 04:27N 59°20' E 018°05'0 0.0
2014-Dec-19 03:27N 59°20' E 018°05'0 0.0
2014-Dec-19 02:21N 59°20' E 018°05'0 0.0
2014-Dec-19 01:33N 59°20' E 018°05'0 0.0
2014-Dec-19 00:24N 59°20' E 018°05'0 0.0
2014-Dec-18 23:24N 59°20' E 018°05'0 0.0
2014-Dec-18 22:33N 59°20' E 018°05'0 0.0
2014-Dec-18 21:33N 59°20' E 018°05'0 0.0
2014-Dec-18 20:33N 59°20' E 018°05'1 1.2
2014-Dec-18 19:33N 59°19' E 018°06'2 1.7
2014-Dec-18 18:18N 59°21' E 018°09'2 2.3
2014-Dec-18 17:30N 59°19' E 018°07'6 4.8
2014-Dec-18 16:13N 59°25' E 018°09'6 8.3
2014-Dec-18 15:30N 59°19' E 018°08'0 0.2
2014-Dec-18 14:32N 59°19' E 018°08'1 0.5
2014-Dec-18 13:27N 59°19' E 018°09'1 0.8
2014-Dec-18 12:33N 59°19' E 018°08'0 0.3
2014-Dec-18 11:28N 59°19' E 018°08'0 0.4
2014-Dec-18 10:33N 59°19' E 018°07'1 0.7
2014-Dec-18 09:27N 59°19' E 018°09'0 0.4
2014-Dec-18 08:32N 59°19' E 018°08'0 0.0
2014-Dec-18 07:25N 59°19' E 018°08'0 0.4
2014-Dec-18 06:31N 59°19' E 018°08'0 0.3
2014-Dec-18 05:19N 59°19' E 018°08'2 2.4
2014-Dec-18 04:29N 59°20' E 018°05'0 0.0
2014-Dec-18 03:23N 59°20' E 018°05'0 0.0
2014-Dec-18 02:30N 59°20' E 018°05'0 0.0
2014-Dec-18 01:27N 59°20' E 018°05'0 0.0
2014-Dec-18 00:27N 59°20' E 018°05'0 0.0
2014-Dec-17 23:33N 59°20' E 018°05'0 0.0
2014-Dec-17 22:27N 59°20' E 018°05'0 0.0
2014-Dec-17 21:24N 59°20' E 018°05'0 0.0
2014-Dec-17 20:24N 59°20' E 018°05'0 0.0
2014-Dec-17 19:24N 59°20' E 018°05'2 2.1
2014-Dec-17 18:17N 59°21' E 018°09'2 2.1
2014-Dec-17 17:30N 59°19' E 018°08'1 0.8
2014-Dec-17 16:25N 59°19' E 018°10'1 0.6
2014-Dec-17 15:32N 59°19' E 018°09'0 0.2
2014-Dec-17 14:32N 59°19' E 018°08'0 0.2
2014-Dec-17 13:27N 59°19' E 018°09'1 0.6
2014-Dec-17 12:32N 59°19' E 018°08'0 0.3
2014-Dec-17 11:24N 59°19' E 018°08'0 0.1
2014-Dec-17 10:31N 59°19' E 018°08'1 0.6
2014-Dec-17 09:28N 59°19' E 018°09'1 0.6
2014-Dec-17 08:33N 59°19' E 018°08'1 0.5
2014-Dec-17 07:28N 59°19' E 018°09'0 0.2
2014-Dec-17 06:17N 59°19' E 018°10'0 0.1
2014-Dec-17 05:33N 59°19' E 018°10'3 2.3
2014-Dec-17 04:26N 59°20' E 018°05'0 0.0
2014-Dec-17 03:23N 59°20' E 018°05'0 0.0
2014-Dec-17 02:20N 59°20' E 018°05'0 0.0
2014-Dec-17 01:32N 59°20' E 018°05'0 0.0
2014-Dec-17 00:32N 59°20' E 018°05'0 0.0
2014-Dec-16 23:29N 59°20' E 018°05'0 0.0
2014-Dec-16 22:26N 59°20' E 018°05'0 0.0
2014-Dec-16 21:23N 59°20' E 018°05'0 0.0
2014-Dec-16 20:23N 59°20' E 018°05'0 0.0
2014-Dec-16 19:23N 59°20' E 018°05'3 3.0
2014-Dec-16 18:30N 59°19' E 018°10'1 0.7
2014-Dec-16 17:32N 59°19' E 018°08'0 0.3
2014-Dec-16 16:32N 59°19' E 018°09'0 0.3
2014-Dec-16 15:28N 59°19' E 018°08'0 0.2
2014-Dec-16 14:33N 59°19' E 018°08'0 0.4
2014-Dec-16 13:27N 59°19' E 018°09'0 0.3
2014-Dec-16 12:31N 59°19' E 018°08'0 0.1
2014-Dec-16 11:25N 59°19' E 018°08'0 0.1
2014-Dec-16 10:29N 59°19' E 018°08'0 0.0
2014-Dec-16 09:30N 59°19' E 018°08'0 0.0
2014-Dec-16 08:32N 59°19' E 018°08'0 0.0
2014-Dec-16 07:29N 59°19' E 018°08'0 0.0
2014-Dec-16 06:30N 59°19' E 018°08'2 1.0
2014-Dec-16 04:33N 59°20' E 018°05'0 0.0
2014-Dec-15 23:27N 59°20' E 018°05'0 0.0
2014-Dec-15 22:33N 59°20' E 018°05'0 0.0
2014-Dec-15 21:33N 59°20' E 018°05'0 0.0
2014-Dec-15 20:33N 59°20' E 018°05'0 0.0
2014-Dec-15 19:30N 59°20' E 018°05'2 1.3
2014-Dec-15 18:06N 59°21' E 018°08'2 3.0
2014-Dec-15 17:32N 59°19' E 018°08'0 0.1
2014-Dec-15 16:32N 59°19' E 018°09'0 0.3
2014-Dec-15 15:31N 59°19' E 018°09'1 0.9
2014-Dec-15 14:33N 59°19' E 018°07'0 0.1
2014-Dec-15 13:21N 59°19' E 018°08'2 2.2
2014-Dec-15 12:30N 59°20' E 018°05'0 0.0
2014-Dec-15 11:33N 59°20' E 018°05'2 2.0
2014-Dec-15 10:32N 59°19' E 018°08'0 0.3
2014-Dec-15 09:25N 59°19' E 018°09'0 0.3
2014-Dec-15 08:33N 59°19' E 018°08'1 0.7
2014-Dec-15 07:32N 59°19' E 018°10'1 1.0
2014-Dec-15 06:32N 59°19' E 018°08'1 1.0
2014-Dec-15 05:32N 59°19' E 018°10'3 2.5
2014-Dec-15 04:31N 59°20' E 018°05'0 0.0
2014-Dec-15 03:19N 59°20' E 018°05'0 0.0
2014-Dec-15 02:31N 59°20' E 018°05'0 0.0
2014-Dec-15 01:31N 59°20' E 018°05'0 0.0
2014-Dec-15 00:22N 59°20' E 018°05'0 0.0
2014-Dec-14 23:22N 59°20' E 018°05'0 0.0
2014-Dec-14 21:10N 59°20' E 018°05'0 0.0
2014-Dec-14 20:22N 59°20' E 018°05'0 0.0
2014-Dec-14 19:22N 59°20' E 018°05'0 0.0
2014-Dec-14 18:31N 59°20' E 018°05'0 0.0
2014-Dec-14 17:28N 59°20' E 018°05'0 0.0
2014-Dec-14 16:04N 59°20' E 018°05'0 0.0
2014-Dec-14 15:22N 59°20' E 018°05'0 0.0
2014-Dec-14 14:22N 59°20' E 018°05'0 0.0
2014-Dec-14 13:31N 59°20' E 018°05'0 0.0
2014-Dec-14 12:28N 59°20' E 018°05'0 0.0
2014-Dec-14 11:22N 59°20' E 018°05'0 0.0
2014-Dec-14 09:31N 59°20' E 018°05'0 0.0
2014-Dec-14 08:31N 59°20' E 018°05'0 0.0
2014-Dec-14 07:31N 59°20' E 018°05'0 0.0
2014-Dec-14 06:04N 59°20' E 018°05'0 0.0
2014-Dec-14 05:25N 59°20' E 018°05'0 0.0
2014-Dec-14 04:19N 59°20' E 018°05'0 0.0
2014-Dec-14 03:28N 59°20' E 018°05'0 0.0
2014-Dec-14 02:16N 59°20' E 018°05'0 0.0
2014-Dec-14 01:28N 59°20' E 018°05'0 0.0
2014-Dec-14 00:28N 59°20' E 018°05'0 0.0
2014-Dec-13 23:28N 59°20' E 018°05'0 0.0
2014-Dec-13 22:13N 59°20' E 018°05'0 0.0
2014-Dec-13 21:22N 59°20' E 018°05'0 0.0
2014-Dec-13 20:22N 59°20' E 018°05'0 0.0
2014-Dec-13 19:31N 59°20' E 018°05'0 0.0
2014-Dec-13 18:19N 59°20' E 018°05'0 0.0
2014-Dec-13 17:28N 59°20' E 018°05'0 0.0
2014-Dec-13 15:13N 59°20' E 018°05'0 0.0
2014-Dec-13 14:13N 59°20' E 018°05'0 0.0
2014-Dec-13 13:22N 59°20' E 018°05'0 0.0
2014-Dec-13 12:22N 59°20' E 018°05'0 0.0
2014-Dec-13 11:22N 59°20' E 018°05'0 0.0
2014-Dec-13 10:28N 59°20' E 018°05'0 0.0
2014-Dec-13 09:25N 59°20' E 018°05'0 0.0
2014-Dec-13 08:25N 59°20' E 018°05'0 0.0
2014-Dec-13 05:22N 59°20' E 018°05'0 0.0
2014-Dec-13 04:19N 59°20' E 018°05'0 0.0
2014-Dec-13 03:19N 59°20' E 018°05'0 0.0
2014-Dec-13 01:25N 59°20' E 018°05'0 0.0
2014-Dec-13 00:25N 59°20' E 018°05'0 0.0
2014-Dec-12 23:25N 59°20' E 018°05'0 0.0
2014-Dec-12 22:31N 59°20' E 018°05'0 0.0
2014-Dec-12 21:31N 59°20' E 018°05'0 0.0
2014-Dec-12 20:27N 59°20' E 018°05'2 1.9
2014-Dec-12 19:26N 59°21' E 018°08'2 2.0
2014-Dec-12 18:31N 59°20' E 018°05'2 2.2
2014-Dec-12 17:33N 59°21' E 018°08'2 1.9
2014-Dec-12 16:30N 59°20' E 018°05'2 2.0
2014-Dec-12 15:33N 59°21' E 018°08'2 1.7
2014-Dec-12 14:26N 59°20' E 018°05'2 1.9
2014-Dec-12 13:30N 59°19' E 018°08'0 0.1
2014-Dec-12 12:32N 59°19' E 018°08'2 1.4
2014-Dec-12 11:24N 59°21' E 018°09'2 2.5
2014-Dec-12 10:31N 59°20' E 018°05'2 1.7
2014-Dec-12 09:31N 59°21' E 018°08'2 1.6
2014-Dec-12 08:23N 59°20' E 018°05'2 2.2
2014-Dec-12 07:18N 59°21' E 018°09'2 2.8
2014-Dec-12 06:32N 59°19' E 018°07'2 1.7
2014-Dec-12 05:22N 59°21' E 018°08'2 2.2
2014-Dec-12 04:31N 59°20' E 018°05'0 0.1
2014-Dec-12 03:27N 59°20' E 018°05'0 0.0
2014-Dec-12 02:27N 59°20' E 018°05'0 0.0
2014-Dec-12 00:21N 59°20' E 018°05'0 0.0
2014-Dec-11 23:33N 59°20' E 018°05'0 0.0
2014-Dec-11 22:24N 59°20' E 018°05'0 0.0
2014-Dec-11 21:33N 59°20' E 018°05'0 0.0
2014-Dec-11 20:33N 59°20' E 018°05'2 1.7
2014-Dec-11 19:22N 59°21' E 018°08'2 2.4
2014-Dec-11 18:31N 59°20' E 018°05'2 2.3
2014-Dec-11 17:29N 59°21' E 018°09'2 2.5
2014-Dec-11 16:31N 59°20' E 018°05'2 2.0
2014-Dec-11 15:33N 59°21' E 018°08'2 2.0
2014-Dec-11 14:33N 59°20' E 018°05'2 1.7
2014-Dec-11 13:33N 59°19' E 018°07'0 0.4
2014-Dec-11 12:32N 59°19' E 018°08'2 1.4
2014-Dec-11 11:23N 59°21' E 018°09'2 2.7
2014-Dec-11 10:34N 59°19' E 018°06'2 1.7
2014-Dec-11 09:29N 59°21' E 018°08'2 1.7
2014-Dec-11 08:23N 59°20' E 018°05'3 3.2
2014-Dec-11 07:33N 59°19' E 018°10'2 1.6
2014-Dec-11 06:30N 59°19' E 018°06'2 2.1
2014-Dec-11 05:30N 59°21' E 018°09'2 2.5
2014-Dec-11 04:32N 59°20' E 018°05'0 0.2
2014-Dec-11 03:06N 59°20' E 018°05'0 0.0
2014-Dec-11 02:30N 59°20' E 018°05'0 0.0
2014-Dec-11 01:33N 59°20' E 018°05'0 0.0
2014-Dec-11 00:27N 59°20' E 018°05'0 0.0
2014-Dec-10 23:33N 59°20' E 018°05'0 0.0
2014-Dec-10 22:15N 59°20' E 018°05'0 0.0
2014-Dec-10 21:27N 59°20' E 018°05'0 0.0
2014-Dec-10 20:26N 59°20' E 018°05'2 2.0
2014-Dec-10 19:28N 59°21' E 018°08'2 2.1
2014-Dec-10 18:33N 59°20' E 018°05'  

Dump ship's entire track history